Map

Track Data

SID SEASON NUMBER BASIN SUBBASIN NAME ISO_TIME NATURE LAT LON WMO_WIND WMO_PRES WMO_AGENCY TRACK_TYPE DIST2LAND LANDFALL IFLAG USA_AGENCY USA_ATCF_ID USA_LAT USA_LON USA_RECORD USA_STATUS USA_WIND USA_PRES USA_SSHS USA_R34_NE USA_R34_SE USA_R34_SW USA_R34_NW USA_R50_NE USA_R50_SE USA_R50_SW USA_R50_NW USA_R64_NE USA_R64_SE USA_R64_SW USA_R64_NW USA_POCI USA_ROCI USA_RMW USA_EYE TOKYO_LAT TOKYO_LON TOKYO_GRADE TOKYO_WIND TOKYO_PRES TOKYO_R50_DIR TOKYO_R50_LONG TOKYO_R50_SHORT TOKYO_R30_DIR TOKYO_R30_LONG TOKYO_R30_SHORT TOKYO_LAND CMA_LAT CMA_LON CMA_CAT CMA_WIND CMA_PRES HKO_LAT HKO_LON HKO_CAT HKO_WIND HKO_PRES NEWDELHI_LAT NEWDELHI_LON NEWDELHI_GRADE NEWDELHI_WIND NEWDELHI_PRES NEWDELHI_CI NEWDELHI_DP NEWDELHI_POCI REUNION_LAT REUNION_LON REUNION_TYPE REUNION_WIND REUNION_PRES REUNION_TNUM REUNION_CI REUNION_RMW REUNION_R34_NE REUNION_R34_SE REUNION_R34_SW REUNION_R34_NW REUNION_R50_NE REUNION_R50_SE REUNION_R50_SW REUNION_R50_NW REUNION_R64_NE REUNION_R64_SE REUNION_R64_SW REUNION_R64_NW BOM_LAT BOM_LON BOM_TYPE BOM_WIND BOM_PRES BOM_TNUM BOM_CI BOM_RMW BOM_R34_NE BOM_R34_SE BOM_R34_SW BOM_R34_NW BOM_R50_NE BOM_R50_SE BOM_R50_SW BOM_R50_NW BOM_R64_NE BOM_R64_SE BOM_R64_SW BOM_R64_NW BOM_ROCI BOM_POCI BOM_EYE BOM_POS_METHOD BOM_PRES_METHOD NADI_LAT NADI_LON NADI_CAT NADI_WIND NADI_PRES WELLINGTON_LAT WELLINGTON_LON WELLINGTON_WIND WELLINGTON_PRES DS824_LAT DS824_LON DS824_STAGE DS824_WIND DS824_PRES TD9636_LAT TD9636_LON TD9636_STAGE TD9636_WIND TD9636_PRES TD9635_LAT TD9635_LON TD9635_WIND TD9635_PRES TD9635_ROCI NEUMANN_LAT NEUMANN_LON NEUMANN_CLASS NEUMANN_WIND NEUMANN_PRES MLC_LAT MLC_LON MLC_CLASS MLC_WIND MLC_PRES USA_GUST BOM_GUST BOM_GUST_PER REUNION_GUST REUNION_GUST_PER USA_SEAHGT USA_SEARAD_NE USA_SEARAD_SE USA_SEARAD_SW USA_SEARAD_NW STORM_SPEED STORM_DIR
1862080S09442 1862 12 SI MM NOT_NAMED 1862-03-20 18:00:00 NR -9.30000 81.9000 main 1709 1709 __________O___ -1 -9.30000 81.9000 7 5 222
1862080S09442 1862 12 SI MM NOT_NAMED 1862-03-20 21:00:00 NR -9.49068 81.7267 main 1729 1729 __________P___ -1 -9.49068 81.7267 7 5 222
1862080S09442 1862 12 SI MM NOT_NAMED 1862-03-21 00:00:00 NR -9.67506 81.5527 main 1751 1750 __________P___ -1 -9.67506 81.5527 7 5 224
1862080S09442 1862 12 SI MM NOT_NAMED 1862-03-21 03:00:00 NR -9.84691 81.3773 main 1761 1761 __________P___ -1 -9.84691 81.3773 7 5 227
1862080S09442 1862 12 SI MM NOT_NAMED 1862-03-21 06:00:00 NR -10.0000 81.2000 main 1782 1782 __________O___ -1 -10.0000 81.2000 7 5 231
1862080S09442 1862 12 SI MM NOT_NAMED 1862-03-21 09:00:00 NR -10.1312 81.0208 main 1793 1793 __________P___ -1 -10.1312 81.0208 7 4 235
1862080S09442 1862 12 SI MM NOT_NAMED 1862-03-21 12:00:00 NR -10.2500 80.8424 main 1804 1804 __________P___ -1 -10.2500 80.8424 7 4 236
1862080S09442 1862 12 SI MM NOT_NAMED 1862-03-21 15:00:00 NR -10.3687 80.6677 main 1826 1826 __________P___ -1 -10.3687 80.6677 7 4 233
1862080S09442 1862 12 SI MM NOT_NAMED 1862-03-21 18:00:00 NR -10.5000 80.5000 main 1837 1837 __________O___ -1 -10.5000 80.5000 7 4 227
1862080S09442 1862 12 SI MM NOT_NAMED 1862-03-21 21:00:00 NR -10.6606 80.3428 main 1860 1860 __________P___ -1 -10.6606 80.3428 7 5 222
1862080S09442 1862 12 SI MM NOT_NAMED 1862-03-22 00:00:00 NR -10.8350 80.1925 main 1871 1871 __________P___ -1 -10.8350 80.1925 7 5 219
1862080S09442 1862 12 SI MM NOT_NAMED 1862-03-22 03:00:00 NR -11.0168 80.0459 main 1894 1894 __________P___ -1 -11.0168 80.0459 7 5 218
1862080S09442 1862 12 SI MM NOT_NAMED 1862-03-22 06:00:00 NR -11.2000 79.9000 main 1917 1917 __________O___ -1 -11.2000 79.9000 7 5 218
1862080S09442 1862 12 SI MM NOT_NAMED 1862-03-22 09:00:00 NR -11.3831 79.7540 main 1940 1940 __________P___ -1 -11.3831 79.7540 7 5 218
1862080S09442 1862 12 SI MM NOT_NAMED 1862-03-22 12:00:00 NR -11.5649 79.6075 main 1963 1963 __________P___ -1 -11.5649 79.6075 7 5 219
1862080S09442 1862 12 SI MM NOT_NAMED 1862-03-22 15:00:00 NR -11.7393 79.4572 main 1975 1975 __________P___ -1 -11.7393 79.4572 7 5 222
1862080S09442 1862 12 SI MM NOT_NAMED 1862-03-22 18:00:00 NR -11.9000 79.3000 main 1999 1999 __________O___ -1 -11.9000 79.3000 7 4 228
1862080S09442 1862 12 SI MM NOT_NAMED 1862-03-22 21:00:00 NR -12.0149 79.1441 main 2012 2012 __________P___ -1 -12.0149 79.1441 7 4 235
1862080S09442 1862 12 SI MM NOT_NAMED 1862-03-23 00:00:00 NR -12.1199 78.9796 main 2024 2024 __________P___ -1 -12.1199 78.9796 7 4 236
1862080S09442 1862 12 SI MM NOT_NAMED 1862-03-23 03:00:00 NR -12.2399 78.8003 main 2037 2037 __________P___ -1 -12.2399 78.8003 7 5 233
1862080S09442 1862 12 SI MM NOT_NAMED 1862-03-23 06:00:00 NR -12.4000 78.6000 main 2062 2062 __________O___ -1 -12.4000 78.6000 7 6 228
1862080S09442 1862 12 SI MM NOT_NAMED 1862-03-23 09:00:00 NR -12.6197 78.3756 main 2086 2086 __________P___ -1 -12.6197 78.3756 7 7 224
1862080S09442 1862 12 SI MM NOT_NAMED 1862-03-23 12:00:00 NR -12.8825 78.1299 main 2124 2124 __________P___ -1 -12.8825 78.1299 7 7 221
1862080S09442 1862 12 SI MM NOT_NAMED 1862-03-23 15:00:00 NR -13.1790 77.8692 main 2160 2160 __________P___ -1 -13.1790 77.8692 7 8 220
1862080S09442 1862 12 SI MM NOT_NAMED 1862-03-23 18:00:00 NR -13.5000 77.6000 main 2198 2195 __________O___ -1 -13.5000 77.6000 7 8 219
1862080S09442 1862 12 SI MM NOT_NAMED 1862-03-23 21:00:00 NR -13.8284 77.3281 main 2195 2158 __________P___ -1 -13.8284 77.3281 7 9 218
1862080S09442 1862 12 SI MM NOT_NAMED 1862-03-24 00:00:00 NR -14.1775 77.0499 main 2148 2116 __________P___ -1 -14.1775 77.0499 7 9 217
1862080S09442 1862 12 SI MM NOT_NAMED 1862-03-24 03:00:00 NR -14.5378 76.7718 main 2116 2070 __________P___ -1 -14.5378 76.7718 7 9 216
1862080S09442 1862 12 SI MM NOT_NAMED 1862-03-24 06:00:00 NR -14.9000 76.5000 main 2070 2039 __________O___ -1 -14.9000 76.5000 7 9 216
1862080S09442 1862 12 SI MM NOT_NAMED 1862-03-24 09:00:00 NR -15.2418 76.2384 main 2029 1994 __________P___ -1 -15.2418 76.2384 7 9 216
1862080S09442 1862 12 SI MM NOT_NAMED 1862-03-24 12:00:00 NR -15.5849 75.9846 main 1994 1964 __________P___ -1 -15.5849 75.9846 7 8 215
1862080S09442 1862 12 SI MM NOT_NAMED 1862-03-24 15:00:00 NR -15.9355 75.7384 main 1953 1920 __________P___ -1 -15.9355 75.7384 7 9 213
1862080S09442 1862 12 SI MM NOT_NAMED 1862-03-24 18:00:00 NR -16.3000 75.5000 main 1920 1887 __________O___ -1 -16.3000 75.5000 7 9 211
1862080S09442 1862 12 SI MM NOT_NAMED 1862-03-24 21:00:00 NR -16.6826 75.2689 main 1887 1856 __________P___ -1 -16.6826 75.2689 7 9 209
1862080S09442 1862 12 SI MM NOT_NAMED 1862-03-25 00:00:00 NR -17.0802 75.0434 main 1845 1814 __________P___ -1 -17.0802 75.0434 7 9 208
1862080S09442 1862 12 SI MM NOT_NAMED 1862-03-25 03:00:00 NR -17.4877 74.8211 main 1814 1784 __________P___ -1 -17.4877 74.8211 7 9 207
1862080S09442 1862 12 SI MM NOT_NAMED 1862-03-25 06:00:00 NR -17.9000 74.6000 main 1784 __________O___ -1 -17.9000 74.6000 7 9 207

About IBTrACS Database

This database is a web-friendly format of International Best Track Archive for Climate Stewardship (IBTrACS), a global best track data archive curated by NOAA dating back to 1842.

Updated: 2021-10-08